Time;durP1;ratioP1;P1;durP2;ratioP2;P2;SDS_P1;SDS_P2;PMS_P1;PMS_P2;Temp;Humidity;BMP_temperature;BMP_pressure;BME280_temperature;BME280_humidity;BME280_pressure;Samples;Min_cycle;Max_cycle;Signal;HPM_P1;HPM_P2
2022/01/14 00:01:54;;;;;;;22.73;9.55;;;;;;;7.21;80.42;103478.72;7395620;19;20014;-68
2022/01/14 00:04:22;;;;;;;23.38;8.35;;;;;;;7.20;80.68;103477.88;7396585;19;20014;-68
2022/01/14 00:06:49;;;;;;;25.83;9.85;;;;;;;7.16;80.43;103476.28;7397368;19;20040;-68
2022/01/14 00:09:16;;;;;;;31.08;11.10;;;;;;;7.17;80.63;103472.75;7395065;19;20011;-67
2022/01/14 00:11:50;;;;;;;20.92;9.85;;;;;;;7.17;80.71;103464.03;7395595;19;20053;-68
2022/01/14 00:16:51;;;;;;;23.23;9.35;;;;;;;7.16;80.44;103454.50;7395203;19;20077;-68
2022/01/14 00:19:18;;;;;;;23.40;9.65;;;;;;;7.16;80.07;103451.91;7396247;19;20468;-67
2022/01/14 00:21:46;;;;;;;22.30;9.48;;;;;;;7.12;80.38;103445.06;7395490;19;20021;-68
2022/01/14 00:32:13;;;;;;;24.83;9.27;;;;;;;7.11;81.00;103432.91;7395959;19;20180;-67
2022/01/14 00:34:43;;;;;;;21.80;8.98;;;;;;;7.11;80.83;103441.59;7394888;19;20361;-68
2022/01/14 00:37:14;;;;;;;20.42;9.45;;;;;;;7.10;80.45;103437.31;7392513;19;20025;-68
2022/01/14 00:39:41;;;;;;;21.90;9.80;;;;;;;7.07;80.49;103440.03;7395746;19;20125;-67
2022/01/14 00:42:11;;;;;;;21.73;9.20;;;;;;;7.04;80.52;103429.69;7394791;19;20017;-67
2022/01/14 00:44:38;;;;;;;18.42;7.50;;;;;;;7.04;81.10;103434.94;7398779;19;20007;-67
2022/01/14 00:47:05;;;;;;;21.85;9.02;;;;;;;7.05;80.97;103426.19;7393647;19;20090;-66
2022/01/14 00:49:32;;;;;;;21.98;9.25;;;;;;;7.07;80.65;103428.72;7394184;19;20017;-68
2022/01/14 00:51:59;;;;;;;21.17;8.98;;;;;;;7.06;79.99;103424.41;7394558;19;20015;-68
2022/01/14 00:54:26;;;;;;;19.38;8.80;;;;;;;7.07;80.04;103423.47;7393940;19;20013;-66
2022/01/14 00:57:15;;;;;;;19.02;9.10;;;;;;;7.06;79.96;103425.25;7393927;19;20015;-67
2022/01/14 00:59:42;;;;;;;20.83;9.05;;;;;;;7.05;79.77;103415.72;7393858;19;20014;-66
2022/01/14 01:02:10;;;;;;;19.13;9.18;;;;;;;7.06;80.04;103416.56;7393992;19;20048;-68
2022/01/14 01:04:39;;;;;;;19.42;8.70;;;;;;;7.03;80.04;103420.16;7393271;19;20043;-67
2022/01/14 01:07:09;;;;;;;23.05;9.32;;;;;;;7.02;80.40;103421.06;7394596;19;20327;-67
2022/01/14 01:09:38;;;;;;;22.17;8.38;;;;;;;6.99;80.59;103420.34;7393259;19;20018;-68
2022/01/14 01:14:45;;;;;;;20.23;7.80;;;;;;;6.97;80.79;103422.16;7397947;19;20022;-68
2022/01/14 01:17:13;;;;;;;18.98;7.78;;;;;;;6.95;80.53;103422.25;7392921;19;20003;-68
2022/01/14 01:19:41;;;;;;;21.70;9.25;;;;;;;6.95;80.72;103424.00;7396644;19;20017;-67
2022/01/14 01:22:08;;;;;;;24.40;8.95;;;;;;;6.93;80.83;103413.59;7392080;19;20007;-68
2022/01/14 01:24:35;;;;;;;21.90;9.48;;;;;;;6.94;81.01;103417.94;7393883;19;20428;-67
2022/01/14 01:27:07;;;;;;;23.92;9.65;;;;;;;6.92;80.83;103431.97;7391680;19;20467;-68
2022/01/14 01:30:00;;;;;;;27.88;10.50;;;;;;;6.90;81.07;103425.97;7393064;19;20503;-69
2022/01/14 01:32:27;;;;;;;20.83;9.88;;;;;;;6.93;81.27;103425.81;7393871;19;20010;-68
2022/01/14 01:34:53;;;;;;;24.88;10.13;;;;;;;6.92;81.24;103424.13;7392725;19;20015;-68
2022/01/14 01:37:20;;;;;;;23.63;10.23;;;;;;;6.92;80.93;103430.22;7392744;19;20023;-67
2022/01/14 01:39:47;;;;;;;24.27;9.77;;;;;;;6.91;81.07;103422.44;7392655;19;20026;-68
2022/01/14 01:42:17;;;;;;;24.90;9.50;;;;;;;6.93;81.48;103423.22;7390192;19;20010;-67
2022/01/14 01:44:44;;;;;;;23.38;9.73;;;;;;;6.95;81.20;103432.72;7394461;19;20010;-68
2022/01/14 01:47:21;;;;;;;23.88;9.48;;;;;;;6.96;81.29;103425.72;7392630;19;20015;-67
2022/01/14 01:49:50;;;;;;;16.67;8.50;;;;;;;6.93;81.51;103434.53;7391827;19;20021;-68
2022/01/14 01:52:18;;;;;;;25.67;9.02;;;;;;;6.93;81.24;103429.31;7392654;19;20017;-67
2022/01/14 01:54:45;;;;;;;23.65;8.43;;;;;;;6.92;81.08;103427.59;7389798;19;20011;-68
2022/01/14 01:57:11;;;;;;;23.20;8.40;;;;;;;6.91;81.15;103428.50;7390745;19;20014;-68
2022/01/14 01:59:38;;;;;;;18.70;8.25;;;;;;;6.87;80.87;103427.78;7390596;19;20018;-68
2022/01/14 02:02:06;;;;;;;19.38;7.80;;;;;;;6.85;80.87;103429.63;7392177;19;20148;-67
2022/01/14 02:04:32;;;;;;;20.33;7.90;;;;;;;6.86;80.78;103427.84;7396113;19;20622;-68
2022/01/14 02:06:59;;;;;;;21.17;7.32;;;;;;;6.87;81.11;103429.56;7392334;19;20014;-68
2022/01/14 02:09:26;;;;;;;24.67;8.50;;;;;;;6.83;80.58;103434.06;7393340;19;20082;-68
2022/01/14 02:11:53;;;;;;;15.32;7.43;;;;;;;6.80;80.77;103434.22;7391147;19;20015;-67
2022/01/14 02:22:10;;;;;;;17.90;7.88;;;;;;;6.75;81.45;103422.22;7392079;19;20031;-69
2022/01/14 02:22:47;;;;;;;31.08;12.40;;;;;;;6.71;81.35;103429.34;7392953;19;20543;-66
2022/01/14 02:25:16;;;;;;;20.02;8.75;;;;;;;6.73;82.11;103430.13;7391357;19;20023;-68
2022/01/14 02:27:44;;;;;;;27.52;11.50;;;;;;;6.69;81.75;103430.31;7389242;19;20017;-68
2022/01/14 02:30:11;;;;;;;20.48;8.20;;;;;;;6.70;82.17;103432.03;7389282;19;20482;-67
2022/01/14 02:32:39;;;;;;;22.27;8.60;;;;;;;6.68;82.07;103429.47;7391169;19;20019;-68
2022/01/14 02:35:07;;;;;;;21.25;9.02;;;;;;;6.66;82.18;103427.81;7391038;19;20338;-68
2022/01/14 02:37:42;;;;;;;23.80;8.75;;;;;;;6.65;82.07;103427.00;7390428;19;20035;-68
2022/01/14 02:40:09;;;;;;;20.65;8.18;;;;;;;6.61;81.96;103425.41;7390480;19;20018;-67
2022/01/14 02:42:36;;;;;;;20.58;8.82;;;;;;;6.62;82.40;103418.41;7391889;19;20066;-67
2022/01/14 02:45:07;;;;;;;23.77;8.45;;;;;;;6.61;82.24;103414.94;7393220;19;20613;-68
2022/01/14 02:47:34;;;;;;;16.67;8.32;;;;;;;6.64;83.53;103412.22;7393636;19;20011;-68
2022/01/14 02:50:01;;;;;;;24.05;9.73;;;;;;;6.63;82.40;103410.50;7390133;19;20050;-67
2022/01/14 02:53:25;;;;;;;17.80;8.98;;;;;;;6.62;82.34;103418.41;7389701;19;20063;-67
2022/01/14 02:55:18;;;;;;;28.70;9.30;;;;;;;6.57;82.47;103420.34;7386006;19;20011;-66
2022/01/14 02:57:51;;;;;;;26.63;10.32;;;;;;;6.54;82.92;103410.03;7389959;19;20007;-67
2022/01/14 03:00:20;;;;;;;;;;;;;;;6.52;83.26;103412.69;7388594;19;20020;-67
2022/01/14 03:02:54;;;;;;;23.80;8.05;;;;;;;6.44;82.84;103415.63;7390051;19;19922;-67
2022/01/14 03:05:28;;;;;;;21.75;9.25;;;;;;;6.45;83.80;103429.53;7387744;19;20094;-68
2022/01/14 03:07:56;;;;;;;25.10;9.95;;;;;;;6.44;83.46;103420.88;7390227;19;20014;-67
2022/01/14 03:10:23;;;;;;;24.40;8.85;;;;;;;6.43;83.55;103418.31;7388173;19;20021;-68
2022/01/14 03:12:50;;;;;;;18.52;9.05;;;;;;;6.45;83.94;103406.84;7390362;19;20018;-67
2022/01/14 03:15:17;;;;;;;21.02;8.95;;;;;;;6.42;83.63;103421.84;7391020;19;20475;-67
2022/01/14 03:17:44;;;;;;;22.50;9.68;;;;;;;6.40;83.36;103418.41;7395083;19;20318;-68
2022/01/14 03:20:26;;;;;;;24.60;9.73;;;;;;;6.40;83.31;103421.88;7391653;19;20647;-69
2022/01/14 03:23:03;;;;;;;25.63;9.85;;;;;;;6.34;83.29;103416.94;7387990;19;20003;-68
2022/01/14 03:26:05;;;;;;;22.45;9.77;;;;;;;6.35;83.81;103415.13;7389137;19;20085;-67
2022/01/14 03:28:24;;;;;;;22.42;10.38;;;;;;;6.35;84.24;103410.75;7389603;19;20078;-67
2022/01/14 03:30:53;;;;;;;26.13;10.57;;;;;;;6.37;84.25;103403.72;7393621;19;20021;-68
2022/01/14 03:33:20;;;;;;;24.15;11.48;;;;;;;6.42;85.16;103413.97;7390343;19;20098;-68
2022/01/14 03:35:48;;;;;;;23.38;9.93;;;;;;;6.39;84.31;103408.91;7388252;19;20018;-68
2022/01/14 03:38:16;;;;;;;32.42;12.82;;;;;;;6.34;83.82;103403.84;7391234;19;20015;-67
2022/01/14 03:40:45;;;;;;;24.23;10.77;;;;;;;6.34;84.63;103403.84;7392436;19;20022;-68
2022/01/14 03:43:12;;;;;;;24.20;11.05;;;;;;;6.32;84.05;103383.91;7390001;19;20010;-68
2022/01/14 03:45:40;;;;;;;30.27;11.73;;;;;;;6.31;85.57;103390.03;7391933;19;20017;-68
2022/01/14 03:48:08;;;;;;;34.50;13.73;;;;;;;6.29;84.54;103389.25;7390364;19;20016;-68
2022/01/14 03:50:35;;;;;;;22.50;10.35;;;;;;;6.24;84.99;103389.44;7388066;19;20009;-67
2022/01/14 03:53:04;;;;;;;21.48;9.90;;;;;;;6.21;85.09;103389.56;7390041;19;20015;-68
2022/01/14 03:55:37;;;;;;;34.25;13.05;;;;;;;6.22;86.07;103385.19;7388744;19;20002;-67
2022/01/14 03:58:08;;;;;;;26.45;11.48;;;;;;;6.21;85.81;103386.09;7386809;19;20087;-66
2022/01/14 04:00:36;;;;;;;146.25;22.42;;;;;;;6.22;85.81;103380.81;7391797;19;20023;-67
2022/01/14 04:03:05;;;;;;;26.85;11.77;;;;;;;6.21;87.10;103376.47;7388625;19;20080;-68
2022/01/14 04:05:32;;;;;;;21.77;10.20;;;;;;;6.19;85.79;103372.25;7392950;19;20072;-67
2022/01/14 04:07:59;;;;;;;37.85;14.15;;;;;;;6.14;85.58;103361.97;7391471;19;20014;-67
2022/01/14 04:10:27;;;;;;;24.23;10.43;;;;;;;6.14;85.05;103364.59;7396752;19;20013;-67
2022/01/14 04:13:01;;;;;;;53.00;15.00;;;;;;;6.14;84.71;103361.97;7396758;19;20078;-68
2022/01/14 04:15:42;;;;;;;24.05;11.27;;;;;;;6.17;86.73;103368.81;7395439;19;20440;-67
2022/01/14 04:18:19;;;;;;;44.08;11.98;;;;;;;6.18;85.83;103355.72;7399565;19;20664;-67
2022/01/14 04:20:49;;;;;;;26.95;10.73;;;;;;;6.21;87.26;103359.94;7398800;19;20011;-67
2022/01/14 04:23:25;;;;;;;22.67;10.07;;;;;;;6.18;85.38;103347.88;7395589;19;20122;-68
2022/01/14 04:25:54;;;;;;;25.35;11.38;;;;;;;6.13;84.86;103341.13;7395229;19;20610;-68
2022/01/14 04:28:23;;;;;;;24.00;10.40;;;;;;;6.12;84.41;103337.66;7393958;19;20007;-66
2022/01/14 04:30:54;;;;;;;20.77;9.55;;;;;;;6.12;85.44;103332.44;7395096;19;20087;-66
2022/01/14 04:33:28;;;;;;;21.38;10.27;;;;;;;6.10;85.67;103336.00;7395875;19;20347;-66
2022/01/14 04:35:58;;;;;;;26.70;9.45;;;;;;;6.07;85.41;103333.53;7394198;19;20023;-68
2022/01/14 04:38:33;;;;;;;21.98;10.30;;;;;;;6.05;86.07;103328.34;7398416;19;20033;-66
2022/01/14 04:41:00;;;;;;;21.38;9.88;;;;;;;6.06;86.43;103327.44;7394677;19;20638;-65
2022/01/14 04:43:29;;;;;;;18.27;8.63;;;;;;;6.03;85.69;103334.56;7397116;19;20102;-68
2022/01/14 04:48:32;;;;;;;18.13;7.85;;;;;;;6.04;85.50;103318.84;7393520;19;20342;-67
2022/01/14 04:51:00;;;;;;;20.20;9.27;;;;;;;6.04;85.24;103318.84;7395163;19;20010;-67
2022/01/14 04:53:28;;;;;;;24.70;12.68;;;;;;;6.05;85.38;103307.44;7398413;19;20009;-67
2022/01/14 04:55:56;;;;;;;21.25;9.57;;;;;;;6.01;84.50;103311.94;7392643;19;20011;-67
2022/01/14 04:58:24;;;;;;;20.25;9.02;;;;;;;6.01;84.51;103311.94;7394165;19;20050;-66
2022/01/14 05:00:51;;;;;;;28.30;11.63;;;;;;;6.02;85.43;103307.56;7394523;19;20070;-67
2022/01/14 05:03:25;;;;;;;21.17;8.30;;;;;;;6.03;85.56;103305.81;7392759;19;20496;-68
2022/01/14 05:05:56;;;;;;;20.25;8.35;;;;;;;5.98;85.32;103301.63;7392429;19;20011;-67
2022/01/14 05:08:38;;;;;;;16.73;8.15;;;;;;;6.00;84.91;103301.56;7391025;19;20014;-68
2022/01/14 05:13:45;;;;;;;17.67;8.07;;;;;;;5.99;84.31;103305.09;7396714;19;20259;-66
2022/01/14 05:16:11;;;;;;;20.73;8.15;;;;;;;5.97;84.19;103306.91;7392220;19;20627;-65
2022/01/14 05:18:39;;;;;;;15.30;7.60;;;;;;;5.94;84.15;103310.47;7392171;19;20007;-67
2022/01/14 05:21:06;;;;;;;19.70;8.32;;;;;;;5.94;84.05;103313.09;7397053;19;20007;-66
2022/01/14 05:23:33;;;;;;;18.15;8.23;;;;;;;5.95;84.12;103311.34;7392645;19;20082;-66
2022/01/14 05:26:01;;;;;;;24.02;8.07;;;;;;;5.93;83.51;103308.81;7392747;19;20103;-68
2022/01/14 05:28:27;;;;;;;19.05;8.18;;;;;;;5.89;83.38;103301.97;7393359;19;20010;-67
2022/01/14 05:30:54;;;;;;;20.77;7.78;;;;;;;5.87;83.58;103309.03;7393298;19;20034;-66
2022/01/14 05:33:25;;;;;;;16.25;7.38;;;;;;;5.87;83.76;103316.88;7392787;19;20014;-68
2022/01/14 05:35:52;;;;;;;19.13;7.53;;;;;;;5.84;83.71;103323.97;7394446;19;20078;-67
2022/01/14 05:38:19;;;;;;;23.90;7.93;;;;;;;5.80;83.74;103314.53;7396329;19;20019;-68
2022/01/14 05:40:46;;;;;;;21.98;8.57;;;;;;;5.81;83.80;103324.91;7392885;19;20015;-69
2022/01/14 05:43:15;;;;;;;21.67;9.18;;;;;;;5.78;83.78;103312.00;7394278;19;20007;-67
2022/01/14 05:45:50;;;;;;;18.92;9.20;;;;;;;5.78;84.21;103318.97;7395577;19;20018;-67
2022/01/14 05:48:21;;;;;;;18.17;8.05;;;;;;;5.75;83.73;103324.28;7390436;19;20011;-67
2022/01/14 05:50:48;;;;;;;19.17;9.00;;;;;;;5.73;84.21;103316.53;7391051;19;20082;-68
2022/01/14 05:53:18;;;;;;;18.83;8.90;;;;;;;5.74;84.38;103312.19;7394032;19;20014;-68
2022/01/14 05:55:51;;;;;;;21.08;9.32;;;;;;;5.74;84.53;103312.19;7390433;19;20516;-66
2022/01/14 05:58:18;;;;;;;17.10;8.45;;;;;;;5.73;84.54;103315.69;7395441;19;20010;-66
2022/01/14 06:00:44;;;;;;;20.13;8.80;;;;;;;5.71;84.11;103302.69;7392053;19;20413;-68
2022/01/14 06:03:11;;;;;;;23.67;9.43;;;;;;;5.67;84.19;103303.72;7391044;19;20006;-67
2022/01/14 06:05:40;;;;;;;21.88;9.05;;;;;;;5.65;84.21;103304.66;7391872;19;20019;-67
2022/01/14 06:08:07;;;;;;;17.58;8.63;;;;;;;5.63;84.33;103302.16;7393673;19;20098;-68
2022/01/14 06:10:34;;;;;;;23.15;9.35;;;;;;;5.65;84.69;103305.53;7390089;19;20129;-66
2022/01/14 06:13:01;;;;;;;21.33;8.40;;;;;;;5.67;84.26;103303.72;7391579;19;20018;-67
2022/01/14 06:15:28;;;;;;;20.35;9.10;;;;;;;5.68;84.40;103305.44;7389424;19;20716;-68
2022/01/14 06:17:54;;;;;;;24.58;9.40;;;;;;;5.74;87.23;103299.13;7394006;19;20082;-66
2022/01/14 06:20:23;;;;;;;18.92;9.35;;;;;;;5.71;86.27;103304.44;7393498;19;20078;-68
2022/01/14 06:22:50;;;;;;;23.13;9.57;;;;;;;5.68;85.31;103305.44;7390284;19;20092;-66
2022/01/14 06:25:17;;;;;;;25.80;9.77;;;;;;;5.63;85.23;103301.28;7389549;19;20017;-67
2022/01/14 06:27:44;;;;;;;21.95;9.32;;;;;;;5.63;85.27;103306.50;7389923;19;20013;-67
2022/01/14 06:30:11;;;;;;;22.63;9.73;;;;;;;5.59;84.75;103311.84;7392143;19;20027;-67
2022/01/14 06:32:41;;;;;;;21.58;9.18;;;;;;;5.62;84.54;103316.09;7391797;19;20475;-68
2022/01/14 06:35:14;;;;;;;19.85;9.13;;;;;;;5.63;84.86;103314.34;7395237;19;20025;-68
2022/01/14 06:37:41;;;;;;;23.13;9.20;;;;;;;5.65;85.09;103318.59;7393965;19;20086;-68
2022/01/14 06:40:09;;;;;;;21.38;9.02;;;;;;;5.64;84.68;103310.84;7392766;19;20054;-65
2022/01/14 06:42:43;;;;;;;23.27;9.73;;;;;;;5.60;84.65;103307.47;7389793;19;20013;-68
2022/01/14 06:45:11;;;;;;;19.85;9.25;;;;;;;5.58;84.27;103304.94;7393517;19;20483;-66
2022/01/14 06:47:38;;;;;;;23.67;9.68;;;;;;;5.59;84.97;103304.00;7394140;19;20018;-66
2022/01/14 06:50:05;;;;;;;27.30;10.43;;;;;;;5.58;85.05;103312.78;7390471;19;20015;-68
2022/01/14 06:52:31;;;;;;;22.77;9.30;;;;;;;5.56;84.99;103306.75;7393561;19;20444;-66
2022/01/14 06:54:58;;;;;;;20.27;9.73;;;;;;;5.56;85.29;103311.97;7393999;19;20017;-66
2022/01/14 06:57:25;;;;;;;26.17;10.40;;;;;;;5.55;84.83;103305.03;7390938;19;20405;-67
2022/01/14 06:59:52;;;;;;;22.52;10.23;;;;;;;5.59;84.92;103316.19;7390403;19;20102;-66
2022/01/14 07:02:19;;;;;;;18.48;9.63;;;;;;;5.59;85.09;103305.75;7389056;19;20074;-67
2022/01/14 07:04:46;;;;;;;23.13;10.10;;;;;;;5.57;84.48;103302.38;7395157;19;20086;-67
2022/01/14 07:07:13;;;;;;;27.52;11.88;;;;;;;5.56;84.64;103306.75;7389509;19;20019;-67
2022/01/14 07:09:56;;;;;;;26.15;11.40;;;;;;;5.55;84.84;103305.03;7389805;19;20091;-66
2022/01/14 07:12:27;;;;;;;23.90;10.57;;;;;;;5.54;84.99;103305.94;7392007;19;20370;-66
2022/01/14 07:14:56;;;;;;;27.60;11.07;;;;;;;5.57;85.57;103307.59;7389824;19;20086;-67
2022/01/14 07:17:24;;;;;;;26.02;10.98;;;;;;;5.62;85.26;103310.03;7389982;19;20350;-67
2022/01/14 07:19:54;;;;;;;26.33;10.02;;;;;;;5.64;85.25;103303.00;7389939;19;20014;-66
2022/01/14 07:22:21;;;;;;;24.02;10.50;;;;;;;5.68;85.45;103304.56;7386977;19;20007;-66
2022/01/14 07:24:49;;;;;;;21.63;9.80;;;;;;;5.68;84.87;103300.22;7389480;19;20069;-68
2022/01/14 07:27:16;;;;;;;25.30;11.18;;;;;;;5.65;84.30;103302.06;7388929;19;20018;-68
2022/01/14 07:29:43;;;;;;;23.35;10.23;;;;;;;5.64;84.42;103303.81;7389754;19;20014;-67
2022/01/14 07:32:10;;;;;;;21.15;10.30;;;;;;;5.61;84.61;103303.94;7390378;19;20011;-67
2022/01/14 07:34:37;;;;;;;23.80;10.05;;;;;;;5.64;84.86;103303.00;7389936;19;20067;-66
2022/01/14 07:37:04;;;;;;;24.27;10.05;;;;;;;5.66;84.45;103311.59;7389031;19;20356;-66
2022/01/14 07:39:31;;;;;;;23.70;9.77;;;;;;;5.67;84.68;103321.16;7391483;19;20606;-68
2022/01/14 07:41:58;;;;;;;28.48;10.35;;;;;;;5.67;84.65;103321.16;7399499;19;20476;-68
2022/01/14 07:44:25;;;;;;;24.50;11.88;;;;;;;5.65;84.50;103309.91;7401019;19;20018;-67
2022/01/14 07:46:52;;;;;;;21.92;10.27;;;;;;;5.66;84.74;103319.44;7398899;19;20086;-67
2022/01/14 07:49:19;;;;;;;23.70;10.70;;;;;;;5.68;85.35;103321.09;7396972;19;20003;-66
2022/01/14 07:51:46;;;;;;;24.90;11.18;;;;;;;5.72;85.27;103320.06;7396997;19;20013;-66
2022/01/14 07:54:13;;;;;;;25.02;10.73;;;;;;;5.71;85.15;103326.19;7396002;19;20090;-66
2022/01/14 07:56:47;;;;;;;29.92;11.90;;;;;;;5.69;85.15;103328.00;7393750;19;20010;-67
2022/01/14 07:59:22;;;;;;;24.13;12.15;;;;;;;5.71;85.43;103331.41;7395398;19;20010;-66
2022/01/14 08:01:58;;;;;;;25.75;11.18;;;;;;;5.74;85.25;103325.25;7395751;19;20563;-66
2022/01/14 08:04:26;;;;;;;;;;;;;;;5.75;85.16;103329.53;7396696;19;20041;-66
2022/01/14 08:06:57;;;;;;;28.98;11.40;;;;;;;5.70;84.94;103324.47;7393492;19;19970;-67
2022/01/14 08:09:24;;;;;;;26.90;11.55;;;;;;;5.67;85.31;103324.63;7396172;19;20476;-68
2022/01/14 08:11:51;;;;;;;25.80;12.10;;;;;;;5.68;84.84;103323.72;7396158;19;20132;-67
2022/01/14 08:14:18;;;;;;;29.67;12.10;;;;;;;5.73;85.27;103327.00;7396147;19;20034;-68
2022/01/14 08:16:45;;;;;;;21.77;10.50;;;;;;;5.75;85.30;103319.06;7395439;19;20024;-69
2022/01/14 08:19:11;;;;;;;32.15;11.32;;;;;;;5.73;84.89;103326.13;7395483;19;20670;-67
2022/01/14 08:21:38;;;;;;;24.80;11.27;;;;;;;5.69;85.03;103319.34;7395652;19;20019;-66
2022/01/14 08:24:06;;;;;;;23.48;9.98;;;;;;;5.74;85.00;103312.19;7395097;19;20110;-67
2022/01/14 08:26:33;;;;;;;28.60;10.73;;;;;;;5.79;85.46;103320.69;7399027;19;20070;-67
2022/01/14 08:28:59;;;;;;;25.95;10.88;;;;;;;5.83;84.81;103315.28;7397600;19;20491;-67
2022/01/14 08:31:26;;;;;;;23.52;11.10;;;;;;;5.88;85.26;103312.50;7395330;19;20011;-67
2022/01/14 08:33:53;;;;;;;27.33;10.63;;;;;;;5.92;84.91;103304.50;7391918;19;20021;-67
2022/01/14 08:36:23;;;;;;;28.63;10.52;;;;;;;5.96;84.45;103313.91;7395088;19;20019;-67
2022/01/14 08:38:51;;;;;;;24.33;9.48;;;;;;;6.03;84.54;103318.88;7394451;19;20122;-66
2022/01/14 08:41:19;;;;;;;25.90;11.00;;;;;;;6.05;84.54;103327.50;7394668;19;20086;-66
2022/01/14 08:43:47;;;;;;;24.52;10.30;;;;;;;6.02;84.49;103312.81;7397732;19;20015;-67
2022/01/14 08:46:14;;;;;;;25.17;10.27;;;;;;;6.04;84.30;103308.38;7396362;19;20525;-69
2022/01/14 08:48:41;;;;;;;27.50;12.15;;;;;;;6.07;84.13;103312.63;7392777;19;20058;-68
2022/01/14 08:51:08;;;;;;;24.02;10.63;;;;;;;6.06;84.45;103306.53;7391438;19;20344;-68
2022/01/14 08:53:35;;;;;;;26.50;9.85;;;;;;;6.10;84.74;103302.88;7397118;19;20093;-66
2022/01/14 08:56:02;;;;;;;24.95;10.85;;;;;;;6.10;84.62;103297.66;7393829;19;20019;-67
2022/01/14 08:58:29;;;;;;;26.20;11.00;;;;;;;6.15;84.19;103294.84;7397211;19;20021;-67
2022/01/14 09:00:56;;;;;;;25.85;11.10;;;;;;;6.14;84.05;103295.78;7393631;19;20017;-67
2022/01/14 09:03:27;;;;;;;25.75;11.55;;;;;;;6.18;83.85;103297.34;7393586;19;20422;-68
2022/01/14 09:05:54;;;;;;;29.02;11.88;;;;;;;6.23;84.31;103304.09;7396113;19;20003;-68
2022/01/14 09:08:21;;;;;;;31.65;12.23;;;;;;;6.22;84.08;103291.94;7390774;19;20003;-67
2022/01/14 09:10:48;;;;;;;28.17;11.27;;;;;;;6.29;84.79;103297.75;7392290;19;20014;-68
2022/01/14 09:13:18;;;;;;;23.38;10.40;;;;;;;6.31;83.73;103295.91;7393161;19;20011;-67
2022/01/14 09:15:51;;;;;;;31.55;13.63;;;;;;;6.36;83.96;103286.13;7395036;19;20017;-67
2022/01/14 09:18:18;;;;;;;32.22;12.70;;;;;;;6.37;83.58;103282.59;7394583;19;20365;-68
2022/01/14 09:20:46;;;;;;;49.33;23.25;;;;;;;6.44;85.23;103290.13;7396987;19;20082;-68
2022/01/14 09:23:17;;;;;;;28.02;13.40;;;;;;;6.48;85.80;103295.22;7392933;19;20025;-67
2022/01/14 09:25:54;;;;;;;28.02;12.02;;;;;;;6.46;84.81;103290.03;7391935;19;20100;-67
2022/01/14 09:28:21;;;;;;;23.55;11.85;;;;;;;6.44;84.20;103284.91;7391676;19;20348;-68
2022/01/14 09:30:48;;;;;;;26.15;12.50;;;;;;;6.44;83.38;103284.91;7392211;19;20484;-68
2022/01/14 09:33:19;;;;;;;30.00;11.52;;;;;;;6.53;83.40;103286.28;7393389;19;20115;-68
2022/01/14 09:35:51;;;;;;;26.35;11.48;;;;;;;6.49;82.45;103289.94;7393365;19;20014;-68
2022/01/14 09:38:18;;;;;;;24.55;11.90;;;;;;;6.56;82.71;103287.88;7395879;19;20018;-68
2022/01/14 09:40:49;;;;;;;29.67;13.48;;;;;;;6.60;83.15;103287.72;7390829;19;20015;-67
2022/01/14 09:43:20;;;;;;;30.45;12.68;;;;;;;6.64;82.58;103288.44;7392516;19;20007;-69
2022/01/14 09:46:01;;;;;;;28.33;12.73;;;;;;;6.62;81.91;103288.47;7390801;19;20021;-68
2022/01/14 09:48:32;;;;;;;25.48;11.48;;;;;;;6.65;81.74;103287.50;7390635;19;20014;-67
2022/01/14 09:50:59;;;;;;;26.20;11.85;;;;;;;6.66;80.83;103286.56;7391485;19;20444;-68
2022/01/14 09:53:27;;;;;;;23.95;11.20;;;;;;;6.64;80.90;103289.28;7395738;19;20010;-67
2022/01/14 09:55:53;;;;;;;26.23;11.63;;;;;;;6.64;81.05;103285.81;7392299;19;20019;-68
2022/01/14 09:58:23;;;;;;;27.77;10.93;;;;;;;6.70;81.92;103277.69;7391678;19;20015;-69
2022/01/14 10:00:50;;;;;;;26.25;12.20;;;;;;;6.73;81.19;103282.78;7391620;19;20021;-67
2022/01/14 10:03:27;;;;;;;25.80;12.27;;;;;;;6.73;80.87;103281.03;7395408;19;20017;-67
2022/01/14 10:05:57;;;;;;;24.65;11.95;;;;;;;6.75;80.94;103281.81;7389964;19;20504;-68
2022/01/14 10:08:27;;;;;;;31.42;11.52;;;;;;;6.77;80.78;103286.97;7391039;19;20525;-66
2022/01/14 10:11:00;;;;;;;27.73;11.18;;;;;;;6.78;80.64;103286.91;7390173;19;20023;-68
2022/01/14 10:13:32;;;;;;;23.75;12.18;;;;;;;6.80;80.41;103289.47;7391682;19;20552;-67
2022/01/14 10:16:01;;;;;;;23.35;11.32;;;;;;;6.82;80.23;103288.47;7392221;19;20018;-67
2022/01/14 10:18:28;;;;;;;25.60;11.63;;;;;;;6.88;80.33;103295.19;7387957;19;20030;-67
2022/01/14 10:21:01;;;;;;;25.08;12.40;;;;;;;6.95;81.68;103301.88;7390627;19;20018;-67
2022/01/14 10:23:45;;;;;;;27.83;11.65;;;;;;;7.00;80.65;103309.50;7391079;19;20018;-68
2022/01/14 10:26:13;;;;;;;28.02;11.10;;;;;;;7.00;79.05;103302.50;7394199;19;20014;-68
2022/01/14 10:28:44;;;;;;;24.08;10.75;;;;;;;7.01;78.68;103303.38;7388211;19;20010;-68
2022/01/14 10:31:12;;;;;;;23.73;10.23;;;;;;;6.98;78.50;103306.09;7390389;19;20051;-68
2022/01/14 10:33:39;;;;;;;24.67;10.90;;;;;;;7.02;78.11;103290.19;7389680;19;20017;-69
2022/01/14 10:36:06;;;;;;;20.63;9.60;;;;;;;7.05;78.18;103299.69;7393677;19;20018;-67
2022/01/14 10:38:46;;;;;;;24.75;10.35;;;;;;;7.06;77.37;103294.38;7390539;19;20086;-67
2022/01/14 10:41:13;;;;;;;22.83;9.85;;;;;;;7.05;77.39;103292.69;7391058;19;20474;-68
2022/01/14 10:43:43;;;;;;;26.45;11.63;;;;;;;7.09;77.52;103293.41;7389658;19;20002;-66
2022/01/14 10:46:10;;;;;;;21.63;10.07;;;;;;;7.06;77.59;103286.50;7389303;19;20014;-67
2022/01/14 10:48:43;;;;;;;21.95;10.80;;;;;;;7.08;77.64;103291.69;7390564;19;20010;-68
2022/01/14 10:51:16;;;;;;;25.80;11.93;;;;;;;7.10;77.95;103285.47;7388690;19;20014;-68
2022/01/14 10:53:50;;;;;;;21.05;9.90;;;;;;;7.11;77.88;103283.72;7393000;19;21238;-68
2022/01/14 10:56:25;;;;;;;26.88;11.20;;;;;;;7.13;78.33;103280.09;7392593;19;20018;-67
2022/01/14 10:58:58;;;;;;;28.98;10.77;;;;;;;7.12;77.81;103273.16;7391191;19;20018;-67
2022/01/14 11:01:26;;;;;;;21.98;11.05;;;;;;;7.14;77.89;103265.25;7389976;19;20006;-68
2022/01/14 11:03:59;;;;;;;24.00;10.88;;;;;;;7.18;77.59;103248.47;7388715;19;20479;-69
2022/01/14 11:06:35;;;;;;;24.92;11.27;;;;;;;7.24;77.61;103250.81;7388980;19;20034;-68
2022/01/14 11:09:05;;;;;;;23.08;11.68;;;;;;;7.30;77.48;103253.16;7387699;19;20015;-68
2022/01/14 11:11:44;;;;;;;25.27;10.25;;;;;;;7.36;77.47;103241.53;7386871;19;20014;-67
2022/01/14 11:14:23;;;;;;;25.33;11.25;;;;;;;7.42;77.80;103246.47;7390722;19;20015;-67
2022/01/14 11:16:50;;;;;;;22.13;10.40;;;;;;;7.46;77.49;103229.72;7386927;19;20014;-67
2022/01/14 11:19:17;;;;;;;21.38;10.88;;;;;;;7.49;77.43;103234.78;7386903;19;20062;-68
2022/01/14 11:24:33;;;;;;;25.88;11.80;;;;;;;7.59;77.86;103215.09;7386880;19;20003;-68
2022/01/14 11:27:01;;;;;;;28.17;11.55;;;;;;;7.62;77.44;103220.16;7390859;19;20055;-68
2022/01/14 11:29:33;;;;;;;23.70;10.60;;;;;;;7.67;77.37;103213.78;7387445;19;20013;-68
2022/01/14 11:32:03;;;;;;;25.35;10.57;;;;;;;7.69;77.42;103214.56;7389808;19;20338;-67
2022/01/14 11:34:31;;;;;;;29.75;11.10;;;;;;;7.72;77.25;103203.06;7385396;19;20029;-67
2022/01/14 11:37:00;;;;;;;24.85;11.52;;;;;;;7.74;76.85;103207.34;7390850;19;20086;-69
2022/01/14 11:39:30;;;;;;;29.80;12.77;;;;;;;7.79;76.98;103196.63;7386846;19;20017;-66
2022/01/14 11:41:59;;;;;;;49.08;19.98;;;;;;;7.85;77.43;103198.94;7388077;19;20025;-68
2022/01/14 11:44:38;;;;;;;39.38;16.38;;;;;;;7.90;77.37;103194.31;7391813;19;20015;-66
2022/01/14 11:47:05;;;;;;;40.75;18.13;;;;;;;7.93;77.82;103196.78;7387310;19;20094;-68
2022/01/14 11:49:35;;;;;;;34.65;14.93;;;;;;;7.99;78.12;103191.22;7386033;19;20015;-69
2022/01/14 11:52:05;;;;;;;27.15;13.40;;;;;;;8.03;77.93;103187.53;7388073;19;20007;-68
2022/01/14 11:54:46;;;;;;;26.27;12.02;;;;;;;8.10;78.34;103182.81;7386787;19;20014;-67
2022/01/14 11:57:45;;;;;;;31.17;13.32;;;;;;;8.14;78.53;103173.88;7389795;19;20015;-67
2022/01/14 12:00:27;;;;;;;27.42;13.50;;;;;;;8.18;78.21;103179.81;7384057;19;20018;-68